Deary, ID

12:06 PM PST on March 02, 2015 (GMT -0800)
Paint Horse Ranch | Change Station
CLOSE
Current Station
Personal Weather Station
Location: Deary, ID
Elevation: 2766 ft
Nearby Weather Stations

Elev 2766 ft 46.77 °N, 116.56 °W | Updated 5 minutes ago

Overcast
Overcast
40.3 °F
Feels Like 37 °F
N
4.7
Wind Variable Wind from SSW

Today
High -- | Low -- °F
--% Chance of Precip.
Yesterday
High -- | Low -- °F
Precip. -- in
6:24 AM 5:33 PM
Waxing Gibbous, 92% visible
Pressure 29.93 in
Visibility 10.0 miles
Clouds Overcast 6500 ft
Windchill 37 °F
Dew Point 21 °F
Humidity 46%
Rainfall 0.00 in
Snow Depth Not available.
UV 1 out of 12
Pollen 4.00 out of 12
Air Quality Not available.
Flu Activity Not available.
METAR KPUW 021953Z AUTO 27004KT 10SM OVC065 04/M06 A2987 RMK AO2 SLP133 T00441056

More Conditions Fewer Conditions

Pressure 29.93 in
Visibility 10.0 miles
Clouds Overcast 6500 ft
Windchill 37 °F
Dew Point 21 °F
Humidity 46%
Rainfall 0.00 in
Snow Depth Not available.
UV 1 out of 12
Pollen 4.00 out of 12
Air Quality Not available.
Flu Activity Not available.
METAR KPUW 021953Z AUTO 27004KT 10SM OVC065 04/M06 A2987 RMK AO2 SLP133 T00441056

More Conditions Fewer Conditions

10-Day Weather Forecast

Almanac

Astronomy

Mar. 02, 2015 Rise Set
Actual Time
Civil Twilight
Nautical Twilight
Astronomical Twilight
Moon
Length of Visible Light
Length of Day
Tomorrow will be .
, % of the Moon is Illuminated

Today's Extremes

State Highs State Lows

Community

WunderPhotos

Upload Photos

1,801,927 photos uploaded!

WunderBlogs® & News

Nearby

Air Quality

  Air Quality AQ Index Pollutant
Not available.

Snow Depth

Station Depth Elevation

Earthquake Activity

City Distance Mag. Time & Date
Minimum magnitude displayed is 2.5.

Coastal Water Temperatures

Place Temperature

Nearby Weather Stations